Time;durP1;ratioP1;P1;durP2;ratioP2;P2;SDS_P1;SDS_P2;PMS_P1;PMS_P2;Temp;Humidity;BMP_temperature;BMP_pressure;BME280_temperature;BME280_humidity;BME280_pressure;Samples;Min_cycle;Max_cycle;Signal;HPM_P1;HPM_P2
2024/03/30 00:00:03;;;;;;;2.05;1.23;;;;;;;15.18;65.28;98757.44;5115156;28;20097;-69
2024/03/30 00:02:40;;;;;;;0.65;0.65;;;;;;;15.19;65.28;98755.69;5114880;28;20489;-68
2024/03/30 00:05:08;;;;;;;0.88;0.88;;;;;;;15.19;65.13;98760.81;5114539;28;20077;-69
2024/03/30 00:07:40;;;;;;;0.75;0.75;;;;;;;15.19;65.23;98765.97;5114786;28;20039;-69
2024/03/30 00:10:10;;;;;;;1.35;1.17;;;;;;;15.17;65.34;98762.63;5097594;28;20043;-69
2024/03/30 00:12:37;;;;;;;1.83;1.73;;;;;;;15.13;65.59;98755.91;5114292;28;20393;-69
2024/03/30 00:15:05;;;;;;;1.15;1.05;;;;;;;15.11;65.95;98752.56;5114404;28;20059;-69
2024/03/30 00:17:33;;;;;;;13.65;1.13;;;;;;;15.08;65.90;98752.66;5114437;28;20123;-69
2024/03/30 00:20:02;;;;;;;0.88;0.88;;;;;;;15.06;65.79;98750.16;5114296;28;20501;-70
2024/03/30 00:22:30;;;;;;;3.03;1.15;;;;;;;15.06;66.04;98749.28;5114242;28;20039;-70
2024/03/30 00:24:57;;;;;;;0.57;0.57;;;;;;;15.04;65.75;98746.78;5114433;28;20047;-69
2024/03/30 00:27:24;;;;;;;4.70;2.63;;;;;;;15.04;65.85;98748.50;5114594;28;20512;-69
2024/03/30 00:29:51;;;;;;;20.98;1.63;;;;;;;14.97;65.52;98739.34;5114265;28;20039;-69
2024/03/30 00:32:19;;;;;;;2.90;2.25;;;;;;;15.07;65.57;98751.00;5096491;28;20046;-69
2024/03/30 00:34:47;;;;;;;0.50;0.50;;;;;;;15.09;65.71;98749.19;5114286;28;20035;-69
2024/03/30 00:37:16;;;;;;;1.10;1.00;;;;;;;15.07;65.60;98754.38;5114140;28;20040;-69
2024/03/30 00:39:43;;;;;;;1.40;1.30;;;;;;;15.02;65.53;98758.00;5114244;28;20043;-70
2024/03/30 00:42:11;;;;;;;1.52;1.40;;;;;;;14.99;65.65;98752.97;5114314;28;20093;-69
2024/03/30 00:44:37;;;;;;;1.77;1.63;;;;;;;15.03;65.98;98754.53;5114658;28;20036;-70
2024/03/30 00:47:05;;;;;;;0.60;0.60;;;;;;;15.04;65.27;98751.94;5113612;28;20054;-70
2024/03/30 00:49:32;;;;;;;1.42;1.23;;;;;;;15.03;65.63;98755.38;5096945;28;20036;-69
2024/03/30 00:51:59;;;;;;;1.08;0.98;;;;;;;14.99;65.92;98747.81;5113762;28;20040;-70
2024/03/30 00:54:27;;;;;;;2.38;1.80;;;;;;;14.93;65.98;98748.84;5113711;28;20035;-69
2024/03/30 00:56:55;;;;;;;1.33;1.23;;;;;;;14.89;65.90;98742.16;5113656;28;20047;-70
2024/03/30 00:59:22;;;;;;;1.20;0.80;;;;;;;14.86;66.02;98744.81;5113569;28;20402;-69
2024/03/30 01:01:49;;;;;;;8.43;2.45;;;;;;;14.83;66.09;98751.81;5114061;28;20043;-70
2024/03/30 01:04:16;;;;;;;0.60;0.60;;;;;;;14.77;66.57;98743.41;5113656;28;20043;-70
2024/03/30 01:06:44;;;;;;;0.60;0.57;;;;;;;14.84;66.00;98749.16;5113720;28;20127;-69
2024/03/30 01:09:10;;;;;;;0.50;0.50;;;;;;;14.83;66.13;98751.81;5113483;28;20035;-69
2024/03/30 01:11:41;;;;;;;12.80;2.95;;;;;;;14.79;65.97;98756.19;5096503;28;20081;-70
2024/03/30 01:14:08;;;;;;;1.20;1.10;;;;;;;14.77;66.38;98758.81;5113508;28;20048;-68
2024/03/30 01:16:36;;;;;;;5.30;2.25;;;;;;;14.82;66.14;98747.53;5113507;28;20490;-69
2024/03/30 01:19:03;;;;;;;3.80;1.20;;;;;;;14.77;66.09;98755.41;5113491;28;20501;-70
2024/03/30 01:21:31;;;;;;;1.02;1.00;;;;;;;14.62;66.17;98754.16;5113447;28;20039;-70
2024/03/30 01:23:59;;;;;;;12.23;1.77;;;;;;;14.55;66.90;98759.53;5113339;28;20075;-69
2024/03/30 01:26:27;;;;;;;3.35;2.10;;;;;;;14.37;66.71;98727.56;5096449;28;20043;-69
2024/03/30 01:29:02;;;;;;;2.42;1.45;;;;;;;14.60;66.49;98755.09;5112983;28;20035;-69
2024/03/30 01:31:31;;;;;;;0.70;0.70;;;;;;;14.66;66.18;98757.47;5113405;28;20048;-69
2024/03/30 01:33:58;;;;;;;2.92;2.10;;;;;;;14.68;66.30;98750.56;5113224;28;20036;-69
2024/03/30 01:36:26;;;;;;;0.93;0.93;;;;;;;14.65;66.07;98748.94;5112972;28;20494;-69
2024/03/30 01:38:52;;;;;;;0.93;0.88;;;;;;;14.64;66.23;98749.81;5113235;28;20043;-70
2024/03/30 01:41:20;;;;;;;2.15;1.45;;;;;;;14.56;66.45;98749.22;5096067;28;20043;-69
2024/03/30 01:43:47;;;;;;;3.50;1.88;;;;;;;14.41;67.23;98744.56;5112941;28;20047;-70
2024/03/30 01:46:16;;;;;;;2.90;1.88;;;;;;;14.22;67.95;98748.56;5095903;28;20497;-70
2024/03/30 01:48:43;;;;;;;0.90;0.90;;;;;;;14.31;67.45;98748.31;5112705;28;20048;-70
2024/03/30 01:51:11;;;;;;;5.43;3.13;;;;;;;14.39;67.59;98751.47;5095876;28;20056;-70
2024/03/30 01:53:38;;;;;;;2.55;2.00;;;;;;;14.25;67.75;98761.31;5112838;28;20051;-69
2024/03/30 01:56:06;;;;;;;7.97;3.42;;;;;;;14.20;67.97;98760.59;5112998;28;20039;-69
2024/03/30 01:58:33;;;;;;;6.80;1.15;;;;;;;14.01;68.49;98769.72;5113051;28;20097;-69
2024/03/30 02:01:01;;;;;;;0.93;0.90;;;;;;;13.81;69.11;98766.88;5112974;28;20043;-70
2024/03/30 02:03:29;;;;;;;0.93;0.85;;;;;;;13.57;69.90;98772.69;5112786;28;20081;-70
2024/03/30 02:05:58;;;;;;;1.58;1.48;;;;;;;13.28;70.09;98769.19;5112657;28;20043;-69
2024/03/30 02:08:27;;;;;;;0.73;0.73;;;;;;;13.12;71.20;98770.47;5095750;28;20044;-70
2024/03/30 02:10:56;;;;;;;0.57;0.57;;;;;;;12.95;71.47;98770.03;5095775;28;20094;-70
2024/03/30 02:13:24;;;;;;;0.73;0.73;;;;;;;12.72;71.81;98760.34;5112863;28;20036;-69
2024/03/30 02:15:52;;;;;;;0.63;0.63;;;;;;;12.56;72.42;98759.03;5095984;28;20036;-70
2024/03/30 02:18:19;;;;;;;1.42;1.33;;;;;;;12.47;72.80;98763.50;5112784;28;20065;-69
2024/03/30 02:20:48;;;;;;;0.63;0.63;;;;;;;12.27;73.24;98751.16;5095829;28;20054;-69
2024/03/30 02:23:16;;;;;;;3.13;1.58;;;;;;;12.24;73.64;98776.81;5095833;28;20039;-70
2024/03/30 02:25:44;;;;;;;0.63;0.60;;;;;;;12.10;73.91;98753.25;5112725;28;20069;-70
2024/03/30 02:28:11;;;;;;;4.03;1.60;;;;;;;12.13;74.35;98754.91;5095666;28;20036;-68
2024/03/30 02:30:40;;;;;;;3.03;1.08;;;;;;;12.09;74.58;98762.63;5112470;28;20043;-70
2024/03/30 02:33:07;;;;;;;1.77;1.67;;;;;;;12.07;75.19;98763.53;5112535;28;20039;-69
2024/03/30 02:35:35;;;;;;;0.77;0.77;;;;;;;11.96;74.92;98768.91;5112428;28;20035;-70
2024/03/30 02:38:02;;;;;;;1.13;1.00;;;;;;;11.83;75.36;98759.78;5112687;28;20058;-69
2024/03/30 02:40:31;;;;;;;1.45;1.27;;;;;;;11.91;75.17;98777.53;5095608;28;20051;-70
2024/03/30 02:42:58;;;;;;;1.20;1.13;;;;;;;11.87;75.82;98776.78;5112644;28;20040;-70
2024/03/30 02:45:25;;;;;;;0.95;0.95;;;;;;;11.73;75.88;98778.78;5112403;28;20040;-70
2024/03/30 02:47:52;;;;;;;9.07;2.55;;;;;;;11.70;76.31;98778.81;5111893;28;20090;-69
2024/03/30 02:50:20;;;;;;;2.42;2.05;;;;;;;11.69;76.52;98774.56;5112232;28;20074;-70
2024/03/30 02:52:47;;;;;;;0.60;0.60;;;;;;;11.68;76.86;98769.50;5112544;28;20493;-70
2024/03/30 02:55:14;;;;;;;5.35;1.13;;;;;;;11.69;76.78;98772.00;5114439;28;20032;-69
2024/03/30 02:57:42;;;;;;;1.45;1.33;;;;;;;11.48;76.79;98743.44;5116047;28;20035;-70
2024/03/30 03:00:11;;;;;;;1.35;1.25;;;;;;;11.58;77.07;98767.94;5115867;28;20051;-70
2024/03/30 03:02:38;;;;;;;0.40;0.40;;;;;;;11.51;77.38;98771.50;5099144;28;20036;-69
2024/03/30 03:05:05;;;;;;;0.80;0.80;;;;;;;11.39;77.20;98768.31;5116095;28;20506;-70
2024/03/30 03:07:32;;;;;;;2.25;1.63;;;;;;;11.40;77.34;98775.09;5116029;28;20043;-70
2024/03/30 03:10:00;;;;;;;0.85;0.82;;;;;;;11.35;77.85;98776.03;5098855;28;20043;-68
2024/03/30 03:12:27;;;;;;;1.77;1.05;;;;;;;11.22;77.99;98755.00;5098808;28;20044;-70
2024/03/30 03:14:56;;;;;;;0.90;0.80;;;;;;;11.29;77.86;98773.63;5115944;28;20036;-70
2024/03/30 03:17:22;;;;;;;1.63;1.52;;;;;;;11.12;78.33;98756.03;5098767;28;20036;-70
2024/03/30 03:19:50;;;;;;;1.20;1.13;;;;;;;11.19;78.44;98775.50;5098707;28;20039;-69
2024/03/30 03:22:17;;;;;;;3.17;1.70;;;;;;;11.22;78.24;98774.59;5098779;28;20081;-70
2024/03/30 03:24:45;;;;;;;0.77;0.63;;;;;;;11.15;78.38;98773.88;5115393;28;20402;-70
2024/03/30 03:27:12;;;;;;;0.50;0.50;;;;;;;11.03;78.26;98768.13;5115184;28;20513;-70
2024/03/30 03:29:39;;;;;;;0.50;0.50;;;;;;;11.02;78.39;98777.50;5115864;28;20082;-70
2024/03/30 03:32:07;;;;;;;1.02;1.00;;;;;;;11.02;79.02;98787.69;5098608;28;20031;-70
2024/03/30 03:34:35;;;;;;;11.10;1.38;;;;;;;11.06;79.01;98784.22;5098261;28;20452;-70
2024/03/30 03:37:02;;;;;;;0.65;0.65;;;;;;;10.98;79.32;98796.28;5115177;28;20093;-70
2024/03/30 03:39:29;;;;;;;2.13;1.30;;;;;;;11.01;79.30;98796.25;5098415;28;20505;-70
2024/03/30 03:41:56;;;;;;;0.55;0.55;;;;;;;10.96;79.10;98807.41;5115343;28;20047;-70
2024/03/30 03:44:24;;;;;;;5.50;3.25;;;;;;;10.96;79.21;98802.28;5115008;28;20502;-70
2024/03/30 03:46:51;;;;;;;0.50;0.50;;;;;;;10.89;79.25;98796.44;5097757;28;20402;-69
2024/03/30 03:49:20;;;;;;;1.23;1.13;;;;;;;10.86;79.22;98800.75;5115099;28;20051;-69
2024/03/30 03:51:47;;;;;;;0.60;0.60;;;;;;;10.71;79.19;98782.25;5114818;28;20536;-70
2024/03/30 03:54:15;;;;;;;0.60;0.60;;;;;;;10.78;79.55;98799.16;5115141;28;20047;-70
2024/03/30 03:56:41;;;;;;;0.68;0.68;;;;;;;10.78;79.45;98796.59;5115157;28;20478;-70
2024/03/30 03:59:09;;;;;;;1.20;0.80;;;;;;;10.84;79.99;98805.03;5098018;28;20036;-69
2024/03/30 04:01:36;;;;;;;5.78;2.25;;;;;;;10.81;79.67;98812.75;5114665;28;20039;-69
2024/03/30 04:04:04;;;;;;;2.17;1.95;;;;;;;10.80;79.56;98811.88;5114841;28;20047;-69
2024/03/30 04:06:32;;;;;;;0.63;0.60;;;;;;;10.77;79.84;98807.66;5114868;28;20498;-69
2024/03/30 04:09:01;;;;;;;0.70;0.70;;;;;;;10.77;79.94;98810.22;5114681;28;20036;-70
2024/03/30 04:11:28;;;;;;;;;;;;;;;10.76;79.72;98800.91;5097901;28;20406;-70
2024/03/30 04:13:56;;;;;;;1.42;1.33;;;;;;;10.73;79.85;98795.84;5097550;28;19923;-70
2024/03/30 04:16:23;;;;;;;4.07;1.15;;;;;;;10.72;80.27;98795.88;5114691;28;20048;-70
2024/03/30 04:18:51;;;;;;;1.83;1.73;;;;;;;8.78;80.21;98479.31;5114361;28;20067;-70
2024/03/30 04:21:18;;;;;;;6.78;2.75;;;;;;;10.56;80.10;98797.81;5114442;28;20040;-70
2024/03/30 04:23:50;;;;;;;1.85;1.55;;;;;;;10.52;80.46;98790.22;5097509;28;20040;-70
2024/03/30 04:26:18;;;;;;;0.43;0.43;;;;;;;10.39;80.47;98769.13;5114567;28;20047;-70
2024/03/30 04:28:46;;;;;;;2.85;1.60;;;;;;;10.50;80.53;98786.84;5114397;28;20042;-69
2024/03/30 04:31:13;;;;;;;2.60;0.90;;;;;;;10.53;80.93;98797.84;5114131;28;20497;-69
2024/03/30 04:33:40;;;;;;;7.18;1.90;;;;;;;10.53;80.75;98794.47;5097180;28;20035;-69
2024/03/30 04:36:08;;;;;;;4.35;2.08;;;;;;;10.53;80.54;98792.72;5114280;28;20036;-70
2024/03/30 04:38:36;;;;;;;3.67;3.17;;;;;;;10.52;80.85;98795.31;5114051;28;20039;-69
2024/03/30 04:41:06;;;;;;;2.15;1.95;;;;;;;10.55;80.81;98793.59;5114097;28;20142;-70
2024/03/30 04:43:35;;;;;;;0.50;0.50;;;;;;;10.50;80.50;98797.91;5097176;28;20047;-70
2024/03/30 04:46:02;;;;;;;;;;;;;;;10.47;80.78;98797.94;5114239;28;20039;-70
2024/03/30 04:48:30;;;;;;;2.70;1.85;;;;;;;10.43;80.56;98796.31;5113586;28;20277;-70
2024/03/30 04:50:59;;;;;;;1.48;1.38;;;;;;;10.38;80.97;98802.34;5113903;28;20044;-70
2024/03/30 04:53:32;;;;;;;10.32;1.30;;;;;;;10.33;81.05;98793.91;5113768;28;20043;-70
2024/03/30 04:56:01;;;;;;;1.83;1.65;;;;;;;10.33;81.31;98810.06;5113762;28;20161;-70
2024/03/30 04:58:31;;;;;;;1.50;1.20;;;;;;;10.31;80.73;98800.72;5097174;28;20043;-69
2024/03/30 05:01:02;;;;;;;0.95;0.82;;;;;;;10.39;81.16;98804.84;5113808;28;20051;-69
2024/03/30 05:03:30;;;;;;;2.28;1.73;;;;;;;10.33;81.29;98796.44;5096813;28;20054;-69
2024/03/30 05:05:57;;;;;;;6.45;1.85;;;;;;;10.38;81.68;98805.72;5113757;28;20118;-69
2024/03/30 05:08:25;;;;;;;2.05;1.42;;;;;;;10.34;81.73;98786.22;5079798;28;20409;-70
2024/03/30 05:10:52;;;;;;;0.47;0.47;;;;;;;10.50;81.45;98813.22;5113128;28;20044;-70
2024/03/30 05:13:20;;;;;;;0.57;0.57;;;;;;;10.56;81.03;98796.94;5113395;28;20040;-70
2024/03/30 05:15:48;;;;;;;1.52;1.02;;;;;;;10.60;81.32;98804.56;5096939;28;20036;-70
2024/03/30 05:18:16;;;;;;;1.45;1.35;;;;;;;10.46;80.98;98780.94;5112848;28;20508;-70
2024/03/30 05:20:49;;;;;;;1.20;0.70;;;;;;;10.59;81.06;98813.06;5113454;28;20050;-70
2024/03/30 05:23:18;;;;;;;21.73;2.88;;;;;;;10.53;81.15;98812.31;5113297;28;20490;-69
2024/03/30 05:25:45;;;;;;;0.70;0.70;;;;;;;10.59;80.92;98827.53;5096410;28;20044;-70
2024/03/30 05:28:14;;;;;;;0.98;0.88;;;;;;;10.61;80.97;98831.75;5113446;28;20032;-69
2024/03/30 05:30:41;;;;;;;0.98;0.98;;;;;;;10.68;80.85;98843.53;5113625;28;20051;-69
2024/03/30 05:33:11;;;;;;;4.72;2.05;;;;;;;10.65;81.09;98822.34;5113251;28;20520;-70
2024/03/30 05:35:38;;;;;;;2.65;2.42;;;;;;;10.83;80.82;98841.63;5096129;28;20043;-69
2024/03/30 05:38:06;;;;;;;1.55;0.85;;;;;;;10.92;81.07;98841.50;5113502;28;20044;-70
2024/03/30 05:40:35;;;;;;;8.18;1.90;;;;;;;10.96;80.70;98827.81;5113217;28;20035;-69
2024/03/30 05:43:04;;;;;;;4.68;2.58;;;;;;;10.90;81.04;98836.41;5113149;28;20509;-70
2024/03/30 05:45:31;;;;;;;1.95;1.33;;;;;;;10.93;80.76;98830.41;5113192;28;20035;-69
2024/03/30 05:47:59;;;;;;;2.40;1.40;;;;;;;11.03;80.79;98834.50;5095639;28;20059;-69
2024/03/30 05:50:28;;;;;;;1.42;1.30;;;;;;;11.15;80.73;98849.63;5096070;28;20050;-70
2024/03/30 05:52:56;;;;;;;1.20;1.10;;;;;;;11.22;80.88;98846.09;5113070;28;20566;-70
2024/03/30 05:55:23;;;;;;;5.13;1.55;;;;;;;11.32;80.86;98843.38;5112704;28;20035;-70
2024/03/30 05:57:53;;;;;;;6.75;1.60;;;;;;;11.43;80.77;98850.84;5112787;28;20031;-69
2024/03/30 06:00:22;;;;;;;18.27;1.40;;;;;;;11.50;80.51;98847.31;5113020;28;20048;-70
2024/03/30 06:02:50;;;;;;;0.60;0.60;;;;;;;11.63;80.66;98847.94;5079076;28;20043;-70
2024/03/30 06:05:16;;;;;;;1.10;1.00;;;;;;;11.78;80.51;98853.63;5112779;28;20599;-70
2024/03/30 06:07:45;;;;;;;8.38;2.45;;;;;;;11.91;80.23;98849.13;5112894;28;20043;-69
2024/03/30 06:10:12;;;;;;;0.85;0.85;;;;;;;12.00;80.01;98844.69;5112666;28;20040;-70
2024/03/30 06:12:40;;;;;;;3.25;2.35;;;;;;;12.03;80.19;98820.75;5112807;28;20047;-70
2024/03/30 06:15:07;;;;;;;1.42;1.33;;;;;;;12.27;79.92;98837.31;5112905;28;20075;-69
2024/03/30 06:17:38;;;;;;;1.33;1.23;;;;;;;12.35;79.52;98825.19;5112582;28;20027;-70
2024/03/30 06:20:08;;;;;;;1.33;1.17;;;;;;;12.59;79.28;98834.91;5095940;28;20075;-68
2024/03/30 06:22:37;;;;;;;0.50;0.50;;;;;;;12.76;79.13;98830.25;5112529;28;20096;-69
2024/03/30 06:25:06;;;;;;;0.60;0.60;;;;;;;12.98;78.45;98839.09;5112735;28;20047;-70
2024/03/30 06:27:35;;;;;;;0.82;0.82;;;;;;;13.12;78.60;98831.97;5112735;28;20039;-69
2024/03/30 06:30:02;;;;;;;;;;;;;;;13.40;78.35;98838.06;5114654;28;20040;-70
2024/03/30 06:32:33;;;;;;;;;;;;;;;13.59;78.27;98840.16;5116877;28;20373;-70
2024/03/30 06:35:00;;;;;;;2.40;1.25;;;;;;;13.76;78.08;98845.66;5116229;28;19919;-69
2024/03/30 06:37:30;;;;;;;0.80;0.80;;;;;;;13.90;77.72;98846.13;5099336;28;20438;-69
2024/03/30 06:45:30;;;;;;;0.70;0.70;;;;;;;14.36;73.40;98854.25;5099559;28;20504;-70
2024/03/30 06:47:57;;;;;;;0.82;0.82;;;;;;;14.60;72.48;98845.81;5115764;28;20042;-70
2024/03/30 06:50:24;;;;;;;0.75;0.70;;;;;;;14.79;71.84;98846.09;5116208;28;20039;-70
2024/03/30 06:52:51;;;;;;;4.47;1.02;;;;;;;14.83;71.52;98829.69;5116012;28;20032;-70
2024/03/30 06:55:18;;;;;;;19.33;1.45;;;;;;;14.97;71.48;98840.34;5115829;28;20443;-69
2024/03/30 06:57:47;;;;;;;0.50;0.50;;;;;;;15.10;70.60;98848.53;5116522;28;20398;-70
2024/03/30 07:00:15;;;;;;;1.40;1.30;;;;;;;15.28;69.60;98828.19;5116154;28;20039;-69
2024/03/30 07:02:42;;;;;;;1.77;1.67;;;;;;;15.44;69.21;98833.69;5116096;28;20490;-70
2024/03/30 07:05:10;;;;;;;9.93;1.98;;;;;;;15.54;68.34;98837.66;5098956;28;20505;-69
2024/03/30 07:07:36;;;;;;;2.10;1.88;;;;;;;15.68;67.79;98827.72;5115967;28;20040;-69
2024/03/30 07:10:04;;;;;;;2.10;1.63;;;;;;;15.77;67.38;98837.69;5115892;28;20036;-69
2024/03/30 07:12:31;;;;;;;1.40;1.30;;;;;;;15.92;67.01;98837.16;5115506;28;20039;-69
2024/03/30 07:15:00;;;;;;;3.65;1.35;;;;;;;16.20;65.64;98843.84;5115715;28;20042;-69
2024/03/30 07:17:27;;;;;;;3.28;1.77;;;;;;;16.50;63.96;98843.56;5115985;28;20047;-69
2024/03/30 07:19:55;;;;;;;4.55;2.47;;;;;;;16.74;63.22;98849.53;5115593;28;20043;-68
2024/03/30 07:22:22;;;;;;;1.00;0.98;;;;;;;17.01;61.83;98851.00;5098693;28;20032;-68
2024/03/30 07:24:50;;;;;;;1.23;1.13;;;;;;;17.23;60.01;98845.84;5115490;28;20063;-67
2024/03/30 07:27:16;;;;;;;7.20;2.42;;;;;;;17.35;60.06;98847.91;5098476;28;20039;-69
2024/03/30 07:29:49;;;;;;;2.85;0.60;;;;;;;17.42;60.15;98852.75;5115546;28;20035;-69
2024/03/30 07:32:17;;;;;;;1.10;1.05;;;;;;;17.49;59.84;98849.94;5115221;28;20067;-69
2024/03/30 07:34:47;;;;;;;2.28;1.42;;;;;;;17.59;59.32;98846.09;5098464;28;20084;-68
2024/03/30 07:37:14;;;;;;;1.92;1.83;;;;;;;17.82;59.29;98853.69;5115297;28;20032;-69
2024/03/30 07:39:42;;;;;;;10.60;2.38;;;;;;;17.91;58.40;98835.22;5098318;28;20035;-69
2024/03/30 07:42:09;;;;;;;10.95;2.25;;;;;;;18.03;58.20;98848.44;5114774;28;20047;-69
2024/03/30 07:44:37;;;;;;;1.15;1.05;;;;;;;18.08;57.26;98850.81;5098277;28;20520;-68
2024/03/30 07:47:05;;;;;;;2.25;1.58;;;;;;;18.10;56.53;98849.00;5098080;28;20387;-69
2024/03/30 07:49:35;;;;;;;6.63;2.28;;;;;;;18.16;56.50;98853.91;5114771;28;20397;-69
2024/03/30 07:52:01;;;;;;;;;;;;;;;18.24;56.68;98846.63;5098366;28;20506;-70
2024/03/30 07:54:29;;;;;;;3.83;1.55;;;;;;;18.35;56.94;98849.59;5114994;28;19919;-69
2024/03/30 07:56:57;;;;;;;0.77;0.65;;;;;;;18.37;56.70;98852.06;5114711;28;20040;-69
2024/03/30 07:59:25;;;;;;;1.55;1.45;;;;;;;18.21;56.31;98826.09;5114986;28;20042;-69
2024/03/30 08:01:52;;;;;;;4.63;1.70;;;;;;;18.36;56.54;98840.91;5114866;28;20414;-69
2024/03/30 08:04:21;;;;;;;3.53;2.58;;;;;;;18.55;56.49;98853.84;5115692;28;20055;-68
2024/03/30 08:06:49;;;;;;;0.77;0.77;;;;;;;18.66;55.49;98860.22;5114895;28;20053;-69
2024/03/30 08:09:17;;;;;;;7.47;1.63;;;;;;;18.72;55.14;98844.41;5114633;28;20268;-68
2024/03/30 08:11:44;;;;;;;2.47;1.85;;;;;;;18.92;54.51;98846.06;5097656;28;20046;-68
2024/03/30 08:14:12;;;;;;;5.65;1.13;;;;;;;18.97;54.53;98853.59;5097708;28;20054;-68
2024/03/30 08:16:39;;;;;;;7.22;2.03;;;;;;;19.01;53.90;98849.94;5114381;28;20044;-67
2024/03/30 08:19:09;;;;;;;1.60;1.50;;;;;;;19.04;54.90;98860.13;5114538;28;20036;-68
2024/03/30 08:21:36;;;;;;;5.20;2.10;;;;;;;18.88;53.63;98864.38;5114442;28;20040;-67
2024/03/30 08:24:07;;;;;;;2.63;2.10;;;;;;;18.86;54.23;98850.69;5097329;28;20063;-68
2024/03/30 08:26:33;;;;;;;8.30;2.25;;;;;;;18.65;54.67;98861.13;5114496;28;20055;-68
2024/03/30 08:29:01;;;;;;;2.47;1.70;;;;;;;18.48;54.69;98861.03;5113959;28;20443;-68
2024/03/30 08:31:28;;;;;;;0.60;0.60;;;;;;;18.37;54.81;98857.25;5114173;28;20032;-67
2024/03/30 08:33:56;;;;;;;1.65;1.52;;;;;;;18.32;54.76;98870.38;5114379;28;20047;-66
2024/03/30 08:36:22;;;;;;;1.38;1.27;;;;;;;18.28;55.35;98873.16;5114257;28;20109;-68
2024/03/30 08:38:50;;;;;;;1.75;1.65;;;;;;;18.28;56.19;98873.16;5113803;28;20047;-68
2024/03/30 08:41:18;;;;;;;1.98;1.35;;;;;;;18.23;56.88;98875.13;5114102;28;20077;-67
2024/03/30 08:43:47;;;;;;;1.88;1.77;;;;;;;18.14;56.41;98876.34;5114138;28;20043;-67
2024/03/30 08:46:14;;;;;;;2.47;1.38;;;;;;;18.11;56.49;98881.66;5114099;28;20044;-68
2024/03/30 08:48:41;;;;;;;4.70;2.25;;;;;;;18.13;56.66;98876.44;5113440;28;20047;-68
2024/03/30 08:51:08;;;;;;;3.03;2.05;;;;;;;18.10;56.05;98874.81;5113800;28;20040;-67
2024/03/30 08:53:36;;;;;;;1.48;1.38;;;;;;;18.13;56.30;98881.59;5096200;28;20040;-68
2024/03/30 08:56:03;;;;;;;1.30;0.93;;;;;;;18.13;56.70;98884.19;5096727;28;20036;-67
2024/03/30 08:58:32;;;;;;;1.25;1.15;;;;;;;18.15;57.59;98885.78;5113887;28;20035;-67
2024/03/30 09:00:59;;;;;;;1.73;1.42;;;;;;;18.18;57.60;98888.25;5113839;28;20494;-68
2024/03/30 09:03:27;;;;;;;1.92;1.77;;;;;;;18.24;58.05;98893.13;5113645;28;20096;-67
2024/03/30 09:05:53;;;;;;;0.55;0.55;;;;;;;18.36;58.09;98887.41;5113714;28;20532;-68
2024/03/30 09:08:21;;;;;;;0.90;0.85;;;;;;;18.56;57.60;98889.13;5113519;28;20044;-67
2024/03/30 09:10:48;;;;;;;37.22;2.92;;;;;;;18.68;56.23;98884.25;5113579;28;20043;-68
2024/03/30 09:13:16;;;;;;;7.15;2.85;;;;;;;18.69;54.96;98880.72;5113756;28;20065;-69
2024/03/30 09:15:44;;;;;;;18.85;2.25;;;;;;;18.65;55.59;98874.03;5096637;28;20036;-68
2024/03/30 09:18:12;;;;;;;6.13;1.88;;;;;;;18.73;56.48;98871.94;5113515;28;20051;-67
2024/03/30 09:20:38;;;;;;;0.60;0.57;;;;;;;18.68;54.79;98860.97;5113444;28;20117;-66
2024/03/30 09:23:07;;;;;;;27.40;2.15;;;;;;;18.72;54.96;98885.75;5096442;28;20048;-66
2024/03/30 09:25:34;;;;;;;0.60;0.60;;;;;;;18.69;55.10;98885.09;5113190;28;20494;-68
2024/03/30 09:28:02;;;;;;;1.20;1.10;;;;;;;18.65;54.86;98884.38;5112910;28;20513;-66
2024/03/30 09:30:29;;;;;;;2.45;2.05;;;;;;;18.64;55.05;98882.69;5113620;28;20044;-67
2024/03/30 09:32:58;;;;;;;8.75;2.50;;;;;;;18.68;55.52;98884.25;5112968;28;20050;-67
2024/03/30 09:35:24;;;;;;;0.80;0.80;;;;;;;18.70;56.32;98861.75;5113289;28;20043;-68
2024/03/30 09:37:53;;;;;;;1.00;1.00;;;;;;;18.93;54.84;98865.00;5096350;28;20406;-68
2024/03/30 09:40:21;;;;;;;1.73;1.38;;;;;;;19.13;55.47;98875.22;5113413;28;20052;-68
2024/03/30 09:42:49;;;;;;;2.05;1.67;;;;;;;19.33;56.08;98872.50;5113119;28;20081;-66
2024/03/30 09:45:17;;;;;;;1.63;1.53;;;;;;;19.53;56.24;98874.16;5113208;28;20040;-69
2024/03/30 09:47:48;;;;;;;9.52;3.50;;;;;;;19.59;55.84;98864.31;5112597;28;20055;-66
2024/03/30 09:50:19;;;;;;;2.30;1.85;;;;;;;19.74;54.58;98866.13;5113100;28;20403;-66
2024/03/30 09:52:49;;;;;;;6.78;1.95;;;;;;;19.96;55.69;98863.28;5112759;28;20135;-66
2024/03/30 09:55:17;;;;;;;2.00;1.33;;;;;;;20.10;55.24;98854.78;5112739;28;20486;-66
2024/03/30 09:57:49;;;;;;;3.83;2.45;;;;;;;20.29;54.30;98860.69;5095981;28;20032;-66
2024/03/30 10:00:18;;;;;;;5.47;2.25;;;;;;;20.32;51.51;98870.91;5113045;28;20051;-67
2024/03/30 10:02:46;;;;;;;6.45;2.05;;;;;;;20.30;50.94;98852.84;5113036;28;20401;-66
2024/03/30 10:05:14;;;;;;;1.83;1.47;;;;;;;20.35;50.82;98860.34;5116891;28;20036;-66
2024/03/30 10:07:48;;;;;;;2.55;2.05;;;;;;;20.32;50.92;98856.19;5116929;28;20036;-68
2024/03/30 10:10:17;;;;;;;2.42;1.85;;;;;;;20.16;52.84;98865.66;5117261;28;20043;-66
2024/03/30 10:12:50;;;;;;;7.72;4.30;;;;;;;20.01;52.68;98869.88;5116660;28;20489;-66
2024/03/30 10:15:22;;;;;;;1.83;1.25;;;;;;;19.93;51.97;98864.28;5117118;28;20051;-66
2024/03/30 10:17:49;;;;;;;2.05;1.85;;;;;;;19.95;52.46;98871.97;5116720;28;20497;-66
2024/03/30 10:20:17;;;;;;;2.85;2.05;;;;;;;20.08;53.39;98863.47;5099650;28;20088;-67
2024/03/30 10:22:47;;;;;;;3.38;1.67;;;;;;;20.17;52.90;98872.53;5116874;28;20134;-66
2024/03/30 10:25:14;;;;;;;;;;;;;;;20.10;52.87;98870.34;5117218;28;20100;-65
2024/03/30 10:27:42;;;;;;;1.33;1.23;;;;;;;20.12;52.87;98863.31;5116503;28;20404;-68
2024/03/30 10:30:10;;;;;;;1.25;1.20;;;;;;;20.03;52.42;98865.44;5116398;28;20040;-66
2024/03/30 10:32:38;;;;;;;2.47;1.23;;;;;;;19.98;52.79;98867.47;5116464;28;20047;-65
2024/03/30 10:35:07;;;;;;;1.25;1.17;;;;;;;19.96;54.10;98869.28;5116613;28;20043;-67
2024/03/30 10:37:35;;;;;;;13.45;1.30;;;;;;;19.98;53.59;98882.16;5099661;28;20040;-66
2024/03/30 10:40:07;;;;;;;4.38;2.35;;;;;;;20.03;53.75;98864.63;5116462;28;20043;-67
2024/03/30 10:42:35;;;;;;;1.40;1.10;;;;;;;20.08;54.08;98863.47;5116564;28;20089;-66
2024/03/30 10:45:02;;;;;;;16.13;3.70;;;;;;;20.10;53.41;98865.16;5116163;28;20038;-67
2024/03/30 10:47:31;;;;;;;1.25;1.15;;;;;;;20.14;53.46;98867.50;5115928;28;20074;-67
2024/03/30 10:49:58;;;;;;;4.03;1.45;;;;;;;20.15;53.32;98868.34;5116107;28;20394;-65
2024/03/30 10:52:26;;;;;;;1.45;0.98;;;;;;;20.17;51.98;98866.50;5116344;28;20039;-68
2024/03/30 10:54:54;;;;;;;6.13;3.20;;;;;;;20.11;51.64;98838.34;5115994;28;20035;-66
2024/03/30 10:57:24;;;;;;;18.73;2.47;;;;;;;20.22;51.32;98859.31;5116113;28;20048;-66
2024/03/30 10:59:50;;;;;;;;;;;;;;;20.25;51.90;98865.19;5116585;28;20097;-66
2024/03/30 11:02:22;;;;;;;6.80;1.90;;;;;;;20.23;51.18;98861.84;5116186;28;19927;-66
2024/03/30 11:04:50;;;;;;;1.65;1.42;;;;;;;20.22;52.16;98851.53;5115937;28;20118;-66
2024/03/30 11:07:19;;;;;;;5.32;3.25;;;;;;;20.18;52.49;98847.47;5115691;28;20065;-68
2024/03/30 11:09:46;;;;;;;1.23;1.13;;;;;;;20.18;52.60;98852.63;5098557;28;20387;-67
2024/03/30 11:12:15;;;;;;;4.53;2.53;;;;;;;20.16;52.52;98854.44;5115812;28;20040;-67
2024/03/30 11:14:43;;;;;;;10.63;2.42;;;;;;;20.24;52.60;98836.78;5098569;28;20051;-67
2024/03/30 11:17:19;;;;;;;17.92;2.22;;;;;;;20.36;52.37;98841.31;5115490;28;20062;-66
2024/03/30 11:19:53;;;;;;;0.85;0.85;;;;;;;20.40;52.17;98845.41;5115877;28;20497;-66
2024/03/30 11:22:31;;;;;;;14.02;2.05;;;;;;;20.37;52.00;98832.63;5115930;28;20058;-66
2024/03/30 11:24:59;;;;;;;0.63;0.63;;;;;;;20.33;51.20;98836.28;5098620;28;20055;-68
2024/03/30 11:27:32;;;;;;;10.07;2.40;;;;;;;20.14;50.84;98805.31;5098620;28;20054;-68
2024/03/30 11:30:08;;;;;;;5.78;2.67;;;;;;;20.41;49.37;98822.00;5098714;28;20051;-67
2024/03/30 11:32:41;;;;;;;4.60;1.92;;;;;;;20.51;51.52;98830.13;5098371;28;20036;-67
2024/03/30 11:35:16;;;;;;;3.72;2.28;;;;;;;20.63;51.01;98838.06;5115207;28;20048;-66
2024/03/30 11:37:48;;;;;;;28.50;3.47;;;;;;;20.71;51.56;98811.69;5115550;28;20134;-67
2024/03/30 11:40:21;;;;;;;3.88;1.35;;;;;;;20.76;52.46;98812.28;5098174;28;20134;-67
2024/03/30 11:42:56;;;;;;;1.10;1.02;;;;;;;20.75;51.91;98802.00;5098614;28;20043;-68